Time;durP1;ratioP1;P1;durP2;ratioP2;P2;SDS_P1;SDS_P2;PMS_P1;PMS_P2;Temp;Humidity;BMP_temperature;BMP_pressure;BME280_temperature;BME280_humidity;BME280_pressure;Samples;Min_cycle;Max_cycle;Signal;HPM_P1;HPM_P2
2024/01/13 00:01:50;;;;;;;2.55;1.50;;;5.40;90.40;;;;;;4985663;28;20381;-80
2024/01/13 00:04:16;;;;;;;2.22;1.50;;;5.40;90.40;;;;;;4984250;28;20509;-81
2024/01/13 00:06:41;;;;;;;1.95;1.55;;;5.40;90.40;;;;;;4989259;28;20026;-83
2024/01/13 00:09:07;;;;;;;2.33;1.60;;;5.40;90.40;;;;;;4984220;28;20564;-82
2024/01/13 00:11:33;;;;;;;1.70;1.50;;;5.40;90.40;;;;;;4981049;28;20034;-82
2024/01/13 00:13:59;;;;;;;2.08;1.50;;;5.40;90.30;;;;;;4978109;28;20027;-80
2024/01/13 00:16:25;;;;;;;1.58;1.40;;;5.50;90.30;;;;;;4983032;28;20035;-80
2024/01/13 00:18:50;;;;;;;1.63;1.40;;;5.50;90.30;;;;;;4983092;28;20034;-81
2024/01/13 00:21:16;;;;;;;1.80;1.50;;;5.50;90.30;;;;;;4990749;28;20026;-81
2024/01/13 00:23:42;;;;;;;1.92;1.40;;;5.50;90.20;;;;;;4987543;28;20027;-82
2024/01/13 00:26:07;;;;;;;2.33;1.50;;;5.50;90.20;;;;;;4987630;28;20105;-82
2024/01/13 00:28:33;;;;;;;1.63;1.35;;;5.50;90.20;;;;;;4985175;28;20038;-83
2024/01/13 00:30:58;;;;;;;1.98;1.70;;;5.50;90.30;;;;;;4989010;28;20490;-83
2024/01/13 00:33:24;;;;;;;2.28;1.55;;;5.50;90.30;;;;;;4981492;28;20026;-80
2024/01/13 00:35:50;;;;;;;1.55;1.40;;;5.50;90.40;;;;;;4994582;28;20026;-84
2024/01/13 00:38:16;;;;;;;2.20;1.70;;;5.50;90.30;;;;;;4988071;28;20371;-80
2024/01/13 00:40:42;;;;;;;1.88;1.50;;;5.50;90.30;;;;;;4988092;28;20055;-83
2024/01/13 00:43:07;;;;;;;1.80;1.40;;;5.50;90.30;;;;;;4987760;28;20021;-84
2024/01/13 00:45:34;;;;;;;2.80;1.50;;;5.50;90.30;;;;;;4994866;28;20034;-81
2024/01/13 00:48:00;;;;;;;1.80;1.52;;;5.50;90.30;;;;;;4987956;28;20496;-80
2024/01/13 00:50:26;;;;;;;2.00;1.70;;;5.50;90.40;;;;;;4992767;28;20030;-84
2024/01/13 00:52:51;;;;;;;1.83;1.60;;;5.50;90.30;;;;;;4994655;28;20026;-80
2024/01/13 00:55:17;;;;;;;2.03;1.60;;;5.50;90.40;;;;;;4988149;28;20121;-83
2024/01/13 00:57:42;;;;;;;2.58;2.00;;;5.50;90.30;;;;;;5007504;28;20087;-79
2024/01/13 01:00:08;;;;;;;1.60;1.50;;;5.40;90.30;;;;;;4986831;28;20047;-84
2024/01/13 01:02:34;;;;;;;4.20;1.98;;;5.40;90.40;;;;;;4989675;28;20538;-83
2024/01/13 01:04:59;;;;;;;2.75;1.90;;;5.40;90.40;;;;;;4987654;28;20049;-78
2024/01/13 01:07:25;;;;;;;2.22;1.65;;;5.40;90.50;;;;;;4990204;28;20327;-81
2024/01/13 01:09:51;;;;;;;2.15;1.80;;;5.30;90.50;;;;;;4988373;28;20033;-78
2024/01/13 01:12:16;;;;;;;2.03;1.55;;;5.30;90.50;;;;;;4983615;28;20030;-79
2024/01/13 01:14:42;;;;;;;2.80;1.85;;;5.30;90.50;;;;;;5009750;28;20049;-79
2024/01/13 01:17:07;;;;;;;3.13;2.42;;;5.30;90.50;;;;;;4984090;28;20042;-81
2024/01/13 01:19:33;;;;;;;3.38;2.10;;;5.30;90.50;;;;;;4990509;28;20030;-84
2024/01/13 01:21:58;;;;;;;2.95;1.98;;;5.30;90.50;;;;;;4983088;28;20019;-79
2024/01/13 01:24:24;;;;;;;2.40;1.90;;;5.30;90.60;;;;;;4989877;28;20023;-82
2024/01/13 01:26:49;;;;;;;3.67;2.10;;;5.30;90.60;;;;;;5011241;28;20030;-82
2024/01/13 01:29:15;;;;;;;3.03;2.00;;;5.30;90.60;;;;;;4982755;28;20076;-81
2024/01/13 01:31:40;;;;;;;2.75;1.90;;;5.30;90.60;;;;;;4993242;28;20270;-84
2024/01/13 01:34:06;;;;;;;2.33;1.67;;;5.40;90.60;;;;;;4989698;28;20038;-79
2024/01/13 01:36:32;;;;;;;2.28;1.60;;;5.40;90.60;;;;;;4985550;28;20338;-82
2024/01/13 01:38:57;;;;;;;2.53;1.80;;;5.40;90.50;;;;;;4986398;28;20145;-80
2024/01/13 01:41:25;;;;;;;2.40;1.67;;;5.30;90.80;;;;;;4983109;28;20169;-80
2024/01/13 01:43:51;;;;;;;2.03;1.60;;;5.30;90.60;;;;;;4986215;28;20014;-83
2024/01/13 01:46:19;;;;;;;2.17;1.73;;;5.30;90.60;;;;;;4991151;28;20215;-85
2024/01/13 01:48:45;;;;;;;2.03;1.70;;;5.40;90.60;;;;;;5007117;28;20026;-85
2024/01/13 01:51:12;;;;;;;1.98;1.60;;;5.40;90.60;;;;;;4990433;28;20088;-85
2024/01/13 01:53:39;;;;;;;2.58;1.67;;;5.30;90.60;;;;;;4988154;28;20034;-84
2024/01/13 01:56:11;;;;;;;2.45;1.50;;;5.30;90.60;;;;;;4988899;28;20037;-84
2024/01/13 01:58:38;;;;;;;2.45;1.60;;;5.30;90.70;;;;;;4986747;28;20053;-84
2024/01/13 02:01:07;;;;;;;2.28;1.60;;;5.30;90.70;;;;;;4985726;28;20030;-81
2024/01/13 02:03:34;;;;;;;2.28;1.75;;;5.30;90.70;;;;;;4987426;28;20026;-82
2024/01/13 02:06:02;;;;;;;2.20;1.70;;;5.30;90.70;;;;;;4983582;28;20030;-82
2024/01/13 02:08:28;;;;;;;2.03;1.70;;;5.30;90.70;;;;;;4991539;28;20398;-80
2024/01/13 02:10:54;;;;;;;2.42;1.80;;;5.30;90.70;;;;;;4989550;28;20040;-83
2024/01/13 02:13:19;;;;;;;2.35;1.77;;;5.40;90.70;;;;;;4991472;28;20031;-84
2024/01/13 02:15:45;;;;;;;2.10;1.70;;;5.40;90.70;;;;;;4980949;28;20022;-83
2024/01/13 02:18:10;;;;;;;2.25;1.60;;;5.40;90.70;;;;;;4987337;28;20145;-80
2024/01/13 02:20:36;;;;;;;2.40;1.60;;;5.40;90.70;;;;;;4985269;28;20034;-80
2024/01/13 02:23:01;;;;;;;2.53;1.70;;;5.40;90.70;;;;;;4987830;28;20026;-83
2024/01/13 02:25:27;;;;;;;3.03;1.73;;;5.40;90.70;;;;;;5005967;28;20362;-83
2024/01/13 02:27:52;;;;;;;1.13;1.02;;;5.30;90.70;;;;;;4982988;28;20022;-81
2024/01/13 02:30:18;;;;;;;2.40;1.52;;;5.30;90.70;;;;;;4988894;28;20023;-84
2024/01/13 02:32:44;;;;;;;2.63;1.90;;;5.30;90.80;;;;;;4986000;28;20019;-85
2024/01/13 02:35:09;;;;;;;2.38;1.63;;;5.20;90.90;;;;;;4987988;28;20021;-81
2024/01/13 02:37:35;;;;;;;1.92;1.40;;;5.20;90.90;;;;;;4986075;28;20041;-83
2024/01/13 02:40:00;;;;;;;2.47;1.58;;;5.20;90.90;;;;;;4982941;28;20018;-80
2024/01/13 02:42:26;;;;;;;1.95;1.52;;;5.20;90.90;;;;;;4979129;28;20100;-81
2024/01/13 02:44:51;;;;;;;2.80;1.48;;;5.20;90.90;;;;;;4981333;28;20119;-79
2024/01/13 02:47:22;;;;;;;1.90;1.58;;;5.20;91.00;;;;;;4983046;28;20126;-81
2024/01/13 02:49:48;;;;;;;2.70;1.65;;;5.20;90.90;;;;;;4983642;28;20077;-82
2024/01/13 02:52:14;;;;;;;1.88;1.30;;;5.20;90.90;;;;;;4981339;28;20026;-82
2024/01/13 02:54:39;;;;;;;1.42;1.23;;;5.30;90.90;;;;;;4987678;28;20038;-79
2024/01/13 02:57:05;;;;;;;1.80;1.30;;;5.30;90.90;;;;;;4984272;28;20026;-81
2024/01/13 02:59:30;;;;;;;1.80;1.40;;;5.30;90.90;;;;;;4978635;28;20030;-83
2024/01/13 03:01:56;;;;;;;2.45;1.63;;;5.30;90.90;;;;;;4979929;28;20022;-81
2024/01/13 03:04:21;;;;;;;2.38;1.45;;;5.30;90.90;;;;;;4980442;28;20446;-83
2024/01/13 03:06:47;;;;;;;1.95;1.50;;;5.30;90.90;;;;;;4987102;28;20116;-80
2024/01/13 03:09:12;;;;;;;2.00;1.60;;;5.20;90.90;;;;;;4987909;28;20078;-83
2024/01/13 03:11:38;;;;;;;1.60;1.20;;;5.20;91.00;;;;;;4986503;28;20084;-82
2024/01/13 03:14:04;;;;;;;1.85;1.48;;;5.30;91.00;;;;;;4980867;28;20589;-82
2024/01/13 03:16:29;;;;;;;2.00;1.48;;;5.20;91.00;;;;;;4986596;28;20085;-81
2024/01/13 03:18:55;;;;;;;2.50;1.73;;;5.20;91.10;;;;;;4976151;28;20105;-79
2024/01/13 03:21:20;;;;;;;1.80;1.45;;;5.20;91.10;;;;;;4984263;28;20031;-82
2024/01/13 03:23:46;;;;;;;2.00;1.48;;;5.20;91.40;;;;;;4976599;28;20510;-81
2024/01/13 03:26:13;;;;;;;1.85;1.50;;;5.20;91.10;;;;;;4978120;28;20129;-81
2024/01/13 03:28:38;;;;;;;1.75;1.35;;;5.20;91.10;;;;;;4980280;28;20243;-79
2024/01/13 03:31:04;;;;;;;1.70;1.58;;;5.20;91.10;;;;;;4984534;28;20058;-82
2024/01/13 03:33:29;;;;;;;2.47;1.80;;;5.20;91.10;;;;;;4980205;28;20029;-78
2024/01/13 03:35:55;;;;;;;2.33;1.70;;;5.20;91.10;;;;;;4984639;28;20398;-81
2024/01/13 03:38:20;;;;;;;2.95;2.15;;;5.20;91.20;;;;;;4986680;28;20037;-82
2024/01/13 03:40:46;;;;;;;2.28;1.85;;;5.20;91.20;;;;;;4981119;28;20038;-80
2024/01/13 03:43:11;;;;;;;3.08;1.98;;;5.20;91.10;;;;;;4981135;28;20018;-82
2024/01/13 03:45:37;;;;;;;2.78;1.98;;;5.20;91.10;;;;;;4980881;28;20026;-79
2024/01/13 03:48:03;;;;;;;3.22;2.22;;;5.20;91.10;;;;;;4978572;28;20023;-81
2024/01/13 03:50:28;;;;;;;3.22;1.90;;;5.20;91.20;;;;;;4982152;28;20033;-83
2024/01/13 03:52:54;;;;;;;2.50;1.83;;;5.20;91.20;;;;;;4976859;28;20030;-79
2024/01/13 03:55:19;;;;;;;2.53;1.77;;;5.20;91.20;;;;;;4986324;28;20015;-82
2024/01/13 03:57:45;;;;;;;3.13;2.10;;;5.20;91.20;;;;;;4983807;28;20073;-82
2024/01/13 04:00:11;;;;;;;3.38;2.13;;;5.20;91.20;;;;;;4987011;28;20502;-82
2024/01/13 04:02:36;;;;;;;2.80;1.88;;;5.20;91.30;;;;;;4985614;28;20113;-81
2024/01/13 04:05:02;;;;;;;3.13;2.10;;;5.20;91.30;;;;;;4983967;28;20045;-80
2024/01/13 04:07:27;;;;;;;2.70;2.00;;;5.20;91.30;;;;;;4981279;28;20114;-81
2024/01/13 04:09:53;;;;;;;3.70;2.30;;;5.20;91.30;;;;;;4985831;28;20062;-78
2024/01/13 04:12:19;;;;;;;3.15;1.70;;;5.10;91.30;;;;;;4985385;28;20445;-82
2024/01/13 04:14:45;;;;;;;3.80;2.20;;;5.10;91.00;;;;;;4987339;28;20041;-78
2024/01/13 04:17:10;;;;;;;3.10;2.10;;;5.10;91.30;;;;;;4988133;28;20113;-81
2024/01/13 04:19:36;;;;;;;3.17;2.10;;;5.10;91.40;;;;;;4990677;28;20507;-80
2024/01/13 04:22:01;;;;;;;3.92;2.42;;;5.20;91.40;;;;;;4986457;28;20817;-82
2024/01/13 04:24:27;;;;;;;5.18;2.72;;;5.20;91.40;;;;;;4981148;28;20448;-81
2024/01/13 04:26:52;;;;;;;4.20;2.80;;;5.20;91.40;;;;;;4979245;28;20034;-79
2024/01/13 04:29:18;;;;;;;4.25;2.20;;;5.20;91.40;;;;;;4987678;28;20100;-81
2024/01/13 04:31:44;;;;;;;4.88;2.88;;;5.20;91.50;;;;;;4987355;28;20097;-80
2024/01/13 04:34:09;;;;;;;4.72;2.72;;;5.30;91.50;;;;;;4986429;28;20393;-80
2024/01/13 04:36:35;;;;;;;4.60;2.90;;;5.20;91.50;;;;;;4988078;28;20054;-78
2024/01/13 04:39:01;;;;;;;5.45;3.30;;;5.10;91.50;;;;;;5009761;28;20031;-81
2024/01/13 04:41:26;;;;;;;4.80;3.08;;;5.10;91.50;;;;;;4994782;28;20101;-83
2024/01/13 04:43:52;;;;;;;4.93;2.78;;;5.10;91.50;;;;;;5010224;28;20448;-78
2024/01/13 04:46:17;;;;;;;4.60;2.53;;;5.10;91.50;;;;;;4986439;28;20077;-82
2024/01/13 04:48:43;;;;;;;6.90;3.30;;;5.10;91.50;;;;;;4980594;28;20030;-79
2024/01/13 04:51:08;;;;;;;5.28;3.20;;;5.10;91.50;;;;;;4982679;28;20165;-85
2024/01/13 04:53:34;;;;;;;4.47;2.60;;;5.10;91.50;;;;;;5008533;28;20038;-81
2024/01/13 04:56:00;;;;;;;4.47;2.60;;;5.10;91.50;;;;;;4989976;28;20085;-81
2024/01/13 04:58:25;;;;;;;5.93;3.00;;;5.10;91.50;;;;;;4981378;28;20023;-84
2024/01/13 05:00:51;;;;;;;4.47;2.78;;;5.10;91.60;;;;;;4985959;28;20434;-82
2024/01/13 05:03:16;;;;;;;3.47;2.05;;;5.20;91.60;;;;;;4980322;28;20019;-85
2024/01/13 05:05:42;;;;;;;4.38;2.60;;;5.20;91.60;;;;;;4983750;28;20118;-84
2024/01/13 05:08:07;;;;;;;4.68;2.58;;;5.20;91.60;;;;;;5008892;28;20063;-84
2024/01/13 05:10:33;;;;;;;3.58;2.30;;;5.20;91.60;;;;;;4988036;28;20046;-82
2024/01/13 05:12:58;;;;;;;4.18;2.50;;;5.10;91.60;;;;;;4988601;28;20030;-85
2024/01/13 05:15:24;;;;;;;3.35;2.15;;;5.20;91.70;;;;;;4986463;28;20026;-83
2024/01/13 05:17:49;;;;;;;3.70;2.15;;;5.20;91.70;;;;;;4986135;28;20042;-82
2024/01/13 05:20:15;;;;;;;2.72;1.85;;;5.20;91.70;;;;;;4982163;28;20078;-82
2024/01/13 05:22:41;;;;;;;3.67;2.50;;;5.20;91.60;;;;;;4981576;28;20050;-84
2024/01/13 05:25:08;;;;;;;3.28;2.00;;;5.20;91.60;;;;;;5007253;28;20022;-80
2024/01/13 05:27:33;;;;;;;3.90;2.42;;;5.20;91.70;;;;;;4986317;28;20394;-81
2024/01/13 05:29:59;;;;;;;3.40;2.15;;;5.10;91.70;;;;;;4983223;28;20030;-84
2024/01/13 05:32:24;;;;;;;4.00;2.25;;;5.10;91.80;;;;;;4974578;28;20181;-83
2024/01/13 05:34:50;;;;;;;3.30;2.20;;;5.20;91.80;;;;;;4984782;28;20037;-79
2024/01/13 05:37:16;;;;;;;3.55;2.03;;;5.20;91.80;;;;;;4985025;28;20403;-81
2024/01/13 05:39:41;;;;;;;2.75;1.92;;;5.20;91.80;;;;;;4983221;28;20459;-82
2024/01/13 05:42:09;;;;;;;2.95;2.00;;;5.20;91.80;;;;;;4986197;28;20026;-80
2024/01/13 05:44:35;;;;;;;3.55;2.30;;;5.20;91.80;;;;;;4985551;28;20038;-80
2024/01/13 05:47:00;;;;;;;4.20;2.20;;;5.20;91.80;;;;;;4983225;28;20038;-80
2024/01/13 05:49:26;;;;;;;3.33;2.05;;;5.10;91.80;;;;;;4986868;28;20160;-80
2024/01/13 05:51:51;;;;;;;3.40;2.22;;;5.20;91.90;;;;;;4980768;28;20131;-84
2024/01/13 05:54:17;;;;;;;2.67;1.90;;;5.20;91.90;;;;;;4986229;28;20059;-82
2024/01/13 05:56:43;;;;;;;3.60;2.00;;;5.10;91.90;;;;;;4989637;28;20053;-83
2024/01/13 05:59:08;;;;;;;2.83;2.00;;;5.10;91.90;;;;;;4981686;28;20027;-81
2024/01/13 06:01:34;;;;;;;3.50;2.10;;;5.10;91.90;;;;;;4986480;28;20041;-81
2024/01/13 06:03:59;;;;;;;5.07;2.88;;;5.20;92.00;;;;;;4984351;28;20519;-82
2024/01/13 06:06:25;;;;;;;3.60;2.35;;;5.10;92.00;;;;;;4988703;28;20030;-83
2024/01/13 06:08:50;;;;;;;4.25;2.63;;;5.20;92.00;;;;;;4991833;28;20030;-84
2024/01/13 06:11:16;;;;;;;4.32;2.70;;;5.10;92.00;;;;;;4987924;28;20019;-85
2024/01/13 06:13:41;;;;;;;4.10;2.33;;;5.10;92.00;;;;;;4990735;28;20019;-81
2024/01/13 06:16:08;;;;;;;3.25;1.90;;;5.20;92.10;;;;;;4991637;28;20086;-81
2024/01/13 06:18:34;;;;;;;3.17;1.98;;;5.20;92.00;;;;;;4981086;28;20029;-82
2024/01/13 06:21:01;;;;;;;3.10;2.03;;;5.20;92.00;;;;;;4990605;28;20023;-82
2024/01/13 06:23:26;;;;;;;2.83;1.90;;;5.30;92.00;;;;;;4983759;28;20026;-83
2024/01/13 06:25:52;;;;;;;3.75;2.10;;;5.30;92.00;;;;;;4990845;28;20084;-81
2024/01/13 06:28:18;;;;;;;3.30;2.13;;;5.20;92.00;;;;;;4986264;28;20126;-80
2024/01/13 06:30:43;;;;;;;3.97;2.42;;;5.30;92.00;;;;;;4984499;28;20567;-85
2024/01/13 06:33:09;;;;;;;4.30;2.47;;;5.30;92.00;;;;;;4979660;28;20035;-83
2024/01/13 06:35:34;;;;;;;4.25;2.75;;;5.30;92.00;;;;;;4981861;28;20030;-85
2024/01/13 06:38:00;;;;;;;5.35;2.85;;;5.20;92.00;;;;;;4985234;28;20217;-81
2024/01/13 06:40:25;;;;;;;4.35;2.60;;;5.20;92.00;;;;;;4983229;28;20073;-83
2024/01/13 06:42:51;;;;;;;6.10;3.30;;;5.20;92.10;;;;;;4984514;28;20032;-81
2024/01/13 06:45:17;;;;;;;4.78;3.05;;;5.20;92.10;;;;;;4983066;28;20027;-81
2024/01/13 06:47:43;;;;;;;4.32;2.40;;;5.20;92.20;;;;;;4989461;28;20070;-82
2024/01/13 06:50:09;;;;;;;4.88;2.75;;;5.20;92.20;;;;;;4981361;28;20448;-81
2024/01/13 06:52:35;;;;;;;4.60;2.72;;;5.20;92.20;;;;;;4987452;28;20049;-82
2024/01/13 06:55:02;;;;;;;3.97;2.30;;;5.20;92.20;;;;;;4987906;28;20026;-83
2024/01/13 06:57:27;;;;;;;3.55;2.17;;;5.20;92.20;;;;;;4989956;28;20030;-82
2024/01/13 06:59:53;;;;;;;3.58;2.13;;;5.20;92.20;;;;;;4989589;28;20076;-82
2024/01/13 07:02:18;;;;;;;2.60;2.00;;;5.30;92.20;;;;;;4985991;28;20062;-78
2024/01/13 07:04:45;;;;;;;4.22;2.40;;;5.30;92.20;;;;;;4987043;28;20034;-82
2024/01/13 07:07:11;;;;;;;4.15;2.67;;;5.20;92.20;;;;;;4990852;28;20092;-83
2024/01/13 07:09:37;;;;;;;3.92;2.30;;;5.20;92.20;;;;;;4987248;28;20530;-83
2024/01/13 07:12:02;;;;;;;3.92;2.40;;;5.20;92.20;;;;;;4987059;28;20055;-79
2024/01/13 07:14:30;;;;;;;3.72;2.20;;;5.20;92.20;;;;;;4983607;28;20046;-82
2024/01/13 07:16:56;;;;;;;5.55;2.88;;;5.20;92.30;;;;;;4985097;28;20398;-79
2024/01/13 07:19:21;;;;;;;4.28;2.78;;;5.20;92.30;;;;;;4986270;28;20022;-80
2024/01/13 07:21:47;;;;;;;5.20;3.08;;;5.20;92.40;;;;;;4982361;28;20026;-81
2024/01/13 07:24:13;;;;;;;5.68;3.50;;;5.20;92.40;;;;;;4981378;28;20019;-80
2024/01/13 07:26:43;;;;;;;5.45;3.08;;;5.20;92.30;;;;;;4986616;28;20034;-78
2024/01/13 07:29:09;;;;;;;4.40;2.47;;;5.20;92.30;;;;;;4988754;28;20085;-78
2024/01/13 07:31:34;;;;;;;4.03;2.40;;;5.20;92.30;;;;;;4987666;28;20034;-80
2024/01/13 07:34:01;;;;;;;3.97;2.35;;;5.20;92.30;;;;;;4988217;28;20508;-79
2024/01/13 07:36:26;;;;;;;3.35;2.38;;;5.30;92.30;;;;;;4990340;28;20454;-81
2024/01/13 07:38:52;;;;;;;4.10;2.33;;;5.30;92.30;;;;;;4984031;28;20383;-80
2024/01/13 07:41:17;;;;;;;4.55;2.58;;;5.20;92.30;;;;;;4992543;28;20078;-80
2024/01/13 07:43:46;;;;;;;4.75;2.75;;;5.30;92.30;;;;;;5019226;28;20026;-82
2024/01/13 07:46:14;;;;;;;4.20;2.20;;;5.20;92.30;;;;;;4991939;28;20041;-83
2024/01/13 07:48:40;;;;;;;3.70;2.13;;;5.20;92.40;;;;;;4989891;28;20473;-81
2024/01/13 07:51:05;;;;;;;6.50;3.05;;;5.20;92.80;;;;;;4989620;28;20026;-84
2024/01/13 07:53:31;;;;;;;6.43;3.50;;;5.20;92.50;;;;;;4984254;28;20034;-79
2024/01/13 07:55:58;;;;;;;4.45;2.53;;;5.20;92.50;;;;;;4995713;28;20160;-82
2024/01/13 07:58:24;;;;;;;6.47;3.47;;;5.20;92.60;;;;;;4989103;28;20105;-80
2024/01/13 08:00:49;;;;;;;5.82;3.22;;;5.10;92.60;;;;;;4984780;28;20096;-81
2024/01/13 08:03:15;;;;;;;6.10;2.90;;;5.10;92.60;;;;;;4990924;28;20541;-78
2024/01/13 08:05:40;;;;;;;5.55;3.03;;;5.10;92.60;;;;;;5008420;28;20026;-82
2024/01/13 08:08:07;;;;;;;3.67;2.33;;;5.20;92.70;;;;;;4989727;28;20019;-82
2024/01/13 08:10:35;;;;;;;4.72;2.50;;;5.20;92.70;;;;;;4988079;28;20026;-83
2024/01/13 08:13:01;;;;;;;5.65;3.22;;;5.20;92.70;;;;;;4985017;28;20030;-80
2024/01/13 08:15:27;;;;;;;6.07;3.13;;;5.20;92.70;;;;;;4988109;28;20031;-82
2024/01/13 08:17:53;;;;;;;3.97;2.40;;;5.10;92.60;;;;;;4993461;28;20029;-81
2024/01/13 08:20:19;;;;;;;7.22;3.85;;;5.20;92.60;;;;;;4994046;28;20109;-84
2024/01/13 08:22:46;;;;;;;5.00;2.60;;;5.20;92.70;;;;;;4984483;28;20034;-79
2024/01/13 08:25:12;;;;;;;4.88;2.63;;;5.20;92.70;;;;;;4989776;28;20069;-83
2024/01/13 08:27:38;;;;;;;4.80;2.70;;;5.30;92.70;;;;;;4985785;28;20023;-83
2024/01/13 08:30:05;;;;;;;7.25;3.72;;;5.30;92.70;;;;;;4991255;28;20056;-83
2024/01/13 08:32:31;;;;;;;7.15;3.40;;;5.30;92.70;;;;;;4990041;28;20038;-80
2024/01/13 08:34:57;;;;;;;5.53;3.00;;;5.30;92.80;;;;;;4991086;28;20686;-84
2024/01/13 08:37:22;;;;;;;5.93;3.30;;;5.30;92.80;;;;;;4983159;28;20065;-81
2024/01/13 08:39:48;;;;;;;6.55;3.55;;;5.30;92.80;;;;;;4996730;28;20078;-84
2024/01/13 08:42:14;;;;;;;7.32;3.90;;;5.20;92.80;;;;;;4992432;28;20029;-81
2024/01/13 08:44:39;;;;;;;6.57;3.58;;;5.20;92.80;;;;;;4989562;28;20073;-83
2024/01/13 08:47:05;;;;;;;7.30;3.72;;;5.20;92.90;;;;;;4990177;28;20049;-85
2024/01/13 08:49:30;;;;;;;5.93;3.35;;;5.20;92.90;;;;;;4990754;28;20034;-80
2024/01/13 08:51:56;;;;;;;5.60;3.10;;;5.20;92.90;;;;;;4992784;28;20025;-82
2024/01/13 08:54:23;;;;;;;4.78;2.88;;;5.30;92.90;;;;;;4986639;28;20496;-79
2024/01/13 08:56:49;;;;;;;5.32;2.85;;;5.30;92.90;;;;;;4986920;28;20510;-81
2024/01/13 08:59:15;;;;;;;4.60;2.67;;;5.30;92.90;;;;;;4980220;28;20676;-81
2024/01/13 09:01:41;;;;;;;4.47;2.80;;;5.30;92.90;;;;;;4987475;28;20031;-83
2024/01/13 09:04:08;;;;;;;6.10;3.15;;;5.30;92.90;;;;;;4986647;28;20100;-85
2024/01/13 09:06:34;;;;;;;5.55;3.10;;;5.30;92.80;;;;;;4990585;28;20049;-82
2024/01/13 09:08:59;;;;;;;4.53;2.40;;;5.40;92.80;;;;;;4994749;28;20026;-82
2024/01/13 09:11:25;;;;;;;3.85;2.30;;;5.40;92.80;;;;;;4987670;28;20030;-84
2024/01/13 09:13:51;;;;;;;4.15;2.60;;;5.40;92.80;;;;;;4995326;28;20050;-83
2024/01/13 09:16:17;;;;;;;3.92;2.45;;;5.40;92.80;;;;;;4993412;28;20046;-83
2024/01/13 09:18:42;;;;;;;4.40;2.70;;;5.40;92.80;;;;;;4996292;28;20022;-81
2024/01/13 09:21:08;;;;;;;4.82;2.72;;;5.40;92.80;;;;;;4984437;28;20033;-83
2024/01/13 09:23:35;;;;;;;4.90;2.92;;;5.40;92.80;;;;;;4990364;28;20030;-83
2024/01/13 09:26:03;;;;;;;5.80;3.45;;;5.40;92.80;;;;;;4991204;28;20128;-81
2024/01/13 09:28:29;;;;;;;6.97;3.92;;;5.30;92.80;;;;;;4993950;28;20027;-82
2024/01/13 09:30:54;;;;;;;7.28;3.85;;;5.30;92.80;;;;;;4994299;28;20034;-82
2024/01/13 09:33:20;;;;;;;4.60;2.90;;;5.40;92.90;;;;;;4989111;28;20026;-82
2024/01/13 09:35:46;;;;;;;6.93;4.00;;;5.30;92.90;;;;;;5011073;28;20023;-85
2024/01/13 09:38:12;;;;;;;6.45;3.80;;;5.30;92.90;;;;;;4987252;28;20030;-83
2024/01/13 09:40:41;;;;;;;4.82;2.70;;;5.30;93.00;;;;;;4990292;28;20050;-84
2024/01/13 09:43:18;;;;;;;4.22;2.35;;;5.30;93.00;;;;;;4989295;28;20031;-82
2024/01/13 09:45:47;;;;;;;4.35;2.47;;;5.40;93.00;;;;;;4992770;28;20134;-86
2024/01/13 09:48:19;;;;;;;4.15;2.60;;;5.30;92.90;;;;;;4990224;28;20505;-79
2024/01/13 09:50:45;;;;;;;;;;;5.40;93.00;;;;;;4995149;28;20029;-84
2024/01/13 09:53:19;;;;;;;3.95;2.55;;;5.30;92.90;;;;;;4991019;28;19909;-82
2024/01/13 09:55:44;;;;;;;3.80;2.40;;;5.40;93.00;;;;;;4990589;28;20045;-85
2024/01/13 09:58:10;;;;;;;4.50;2.75;;;5.30;92.90;;;;;;4997883;28;20027;-82
2024/01/13 10:00:37;;;;;;;4.63;2.80;;;5.30;93.00;;;;;;4982650;28;20030;-82
2024/01/13 10:03:03;;;;;;;4.57;2.90;;;5.30;93.00;;;;;;4986549;28;20614;-80
2024/01/13 10:05:30;;;;;;;4.75;2.83;;;5.30;93.00;;;;;;5007637;28;20561;-83
2024/01/13 10:07:55;;;;;;;3.65;2.40;;;5.30;93.00;;;;;;4986900;28;20019;-83
2024/01/13 10:10:23;;;;;;;4.60;2.88;;;5.40;93.00;;;;;;4997293;28;20030;-81
2024/01/13 10:12:50;;;;;;;5.45;2.90;;;5.30;93.00;;;;;;4992894;28;20379;-82
2024/01/13 10:15:16;;;;;;;4.80;2.22;;;5.30;93.00;;;;;;4989064;28;20026;-83
2024/01/13 10:17:42;;;;;;;3.08;1.98;;;5.30;93.00;;;;;;4987610;28;20382;-80
2024/01/13 10:20:13;;;;;;;3.83;2.20;;;5.40;93.00;;;;;;4985134;28;20505;-79
2024/01/13 10:22:39;;;;;;;3.40;2.27;;;5.40;93.00;;;;;;4983850;28;20034;-83
2024/01/13 10:25:07;;;;;;;3.08;2.10;;;5.40;93.00;;;;;;4988608;28;20634;-83
2024/01/13 10:27:33;;;;;;;3.47;2.30;;;5.40;93.00;;;;;;4990098;28;20478;-82
2024/01/13 10:29:59;;;;;;;3.75;1.90;;;5.40;93.00;;;;;;4988413;28;20042;-84
2024/01/13 10:32:25;;;;;;;3.15;2.00;;;5.50;93.10;;;;;;4989035;28;20029;-81
2024/01/13 10:34:53;;;;;;;2.75;1.88;;;5.40;93.10;;;;;;4983031;28;20018;-81
2024/01/13 10:37:18;;;;;;;2.72;2.00;;;5.40;93.10;;;;;;4987573;28;20030;-80
2024/01/13 10:39:44;;;;;;;2.13;1.77;;;5.40;93.00;;;;;;4991526;28;20018;-84
2024/01/13 10:42:10;;;;;;;3.85;2.20;;;5.40;93.00;;;;;;4986909;28;20018;-83
2024/01/13 10:44:43;;;;;;;4.90;2.25;;;5.40;93.20;;;;;;4990955;28;20478;-83
2024/01/13 10:47:14;;;;;;;4.75;2.38;;;5.40;92.90;;;;;;4989363;28;20027;-82
2024/01/13 10:49:41;;;;;;;2.83;2.03;;;5.40;92.90;;;;;;4990410;28;20040;-83
2024/01/13 10:52:07;;;;;;;3.45;2.00;;;5.40;93.00;;;;;;4988918;28;20299;-85
2024/01/13 10:54:34;;;;;;;4.22;2.30;;;5.40;93.00;;;;;;4989665;28;20521;-82
2024/01/13 10:56:59;;;;;;;3.47;2.30;;;5.40;93.00;;;;;;4988720;28;20030;-84
2024/01/13 10:59:30;;;;;;;3.47;2.03;;;5.40;93.00;;;;;;4987421;28;20489;-80
2024/01/13 11:01:58;;;;;;;2.53;1.70;;;5.40;93.00;;;;;;4989017;28;20413;-81
2024/01/13 11:04:25;;;;;;;3.80;2.30;;;5.40;92.90;;;;;;4988477;28;20042;-82
2024/01/13 11:06:51;;;;;;;2.72;1.77;;;5.40;92.90;;;;;;4987527;28;20026;-83
2024/01/13 11:09:19;;;;;;;4.90;2.38;;;5.50;92.90;;;;;;4987046;28;20097;-80
2024/01/13 11:12:05;;;;;;;4.00;2.50;;;5.40;92.90;;;;;;5007239;28;20098;-85
2024/01/13 11:14:36;;;;;;;4.57;2.95;;;5.50;93.00;;;;;;4987367;28;20502;-80
2024/01/13 11:17:02;;;;;;;5.53;3.40;;;5.40;92.90;;;;;;4992825;28;20061;-82
2024/01/13 11:19:32;;;;;;;4.72;2.92;;;5.40;92.90;;;;;;4989921;28;20047;-86
2024/01/13 11:21:58;;;;;;;6.68;3.65;;;5.40;93.00;;;;;;4986134;28;20031;-85
2024/01/13 11:24:26;;;;;;;5.95;3.45;;;5.40;93.00;;;;;;4985337;28;20390;-81
2024/01/13 11:26:54;;;;;;;6.28;3.50;;;5.40;93.00;;;;;;4988411;28;20037;-82
2024/01/13 11:29:21;;;;;;;5.35;3.40;;;5.40;93.00;;;;;;4984919;28;20118;-83
2024/01/13 11:31:53;;;;;;;7.18;4.35;;;5.40;93.00;;;;;;4991171;28;20041;-84
2024/01/13 11:34:19;;;;;;;;;;;5.30;92.90;;;;;;4987799;28;20034;-85
2024/01/13 11:36:49;;;;;;;7.28;3.38;;;5.30;93.00;;;;;;4986884;28;20293;-81
2024/01/13 11:39:17;;;;;;;4.95;2.95;;;5.30;93.00;;;;;;4988770;28;20031;-82
2024/01/13 11:41:46;;;;;;;8.85;4.75;;;5.40;93.10;;;;;;4995535;28;20025;-86
2024/01/13 11:44:19;;;;;;;7.95;4.45;;;5.40;92.90;;;;;;4997484;28;20130;-86
2024/01/13 11:47:00;;;;;;;8.07;4.40;;;5.30;93.00;;;;;;4992872;28;20037;-82
2024/01/13 11:49:33;;;;;;;6.20;3.63;;;5.30;93.00;;;;;;4987210;28;20488;-85
2024/01/13 11:52:01;;;;;;;7.32;3.70;;;5.30;93.00;;;;;;4989570;28;20037;-83
2024/01/13 11:54:27;;;;;;;6.47;3.80;;;5.40;93.00;;;;;;4991043;28;20511;-85
2024/01/13 11:56:53;;;;;;;6.22;3.47;;;5.40;93.00;;;;;;4982421;28;20027;-82
2024/01/13 11:59:19;;;;;;;7.70;4.03;;;5.40;93.00;;;;;;4986563;28;20191;-81
2024/01/13 12:01:46;;;;;;;7.95;4.50;;;5.40;92.90;;;;;;4985947;28;20484;-82
2024/01/13 12:04:12;;;;;;;6.60;3.88;;;5.40;92.90;;;;;;4987478;28;20049;-82
2024/01/13 12:06:40;;;;;;;6.78;4.00;;;5.40;92.90;;;;;;4981046;28;21007;-79
2024/01/13 12:09:06;;;;;;;7.18;3.83;;;5.40;92.90;;;;;;4986095;28;20045;-80
2024/01/13 12:11:32;;;;;;;7.65;4.28;;;5.40;92.90;;;;;;4986719;28;20034;-81
2024/01/13 12:13:58;;;;;;;8.05;4.43;;;5.50;92.90;;;;;;4992854;28;20018;-83
2024/01/13 12:16:23;;;;;;;7.47;3.65;;;5.50;92.90;;;;;;4993488;28;20034;-80
2024/01/13 12:18:49;;;;;;;7.82;3.88;;;5.60;92.80;;;;;;4986530;28;20058;-81
2024/01/13 12:21:15;;;;;;;9.50;4.90;;;5.60;92.70;;;;;;4987547;28;20045;-81
2024/01/13 12:23:42;;;;;;;8.05;4.50;;;5.60;92.70;;;;;;4986243;28;20449;-82
2024/01/13 12:26:07;;;;;;;8.18;4.57;;;5.60;92.60;;;;;;4993016;28;20066;-82
2024/01/13 12:28:34;;;;;;;8.30;4.28;;;5.50;92.60;;;;;;4990930;28;20031;-83
2024/01/13 12:31:03;;;;;;;7.57;4.28;;;5.50;92.60;;;;;;4987192;28;20119;-81
2024/01/13 12:33:29;;;;;;;7.20;3.90;;;5.50;92.60;;;;;;4989709;28;20116;-82
2024/01/13 12:36:03;;;;;;;9.63;5.18;;;5.60;92.70;;;;;;4985271;28;20022;-83
2024/01/13 12:38:32;;;;;;;7.28;4.25;;;5.60;92.60;;;;;;4991710;28;20026;-81
2024/01/13 12:40:59;;;;;;;9.93;5.25;;;5.50;92.60;;;;;;4988648;28;20057;-81
2024/01/13 12:43:25;;;;;;;11.23;5.68;;;5.60;92.60;;;;;;4985689;28;20027;-81
2024/01/13 12:45:51;;;;;;;13.30;7.15;;;5.50;92.60;;;;;;4992634;28;20277;-79
2024/01/13 12:48:18;;;;;;;12.02;6.20;;;5.50;92.60;;;;;;4995352;28;20113;-80
2024/01/13 12:50:43;;;;;;;12.73;6.22;;;5.50;92.60;;;;;;4986936;28;20030;-80
2024/01/13 12:53:12;;;;;;;11.63;5.97;;;5.50;92.60;;;;;;4990653;28;20137;-82